sensor_id;sensor_type;location;lat;lon;timestamp;temperature;humidity
54954;DHT22;40855;51.072;5.402;2022-11-25T00:02:17;10.40;99.90
54954;DHT22;40855;51.072;5.402;2022-11-25T00:04:43;10.40;99.90
54954;DHT22;40855;51.072;5.402;2022-11-25T00:07:08;10.40;99.90
54954;DHT22;40855;51.072;5.402;2022-11-25T00:09:34;10.40;99.90
54954;DHT22;40855;51.072;5.402;2022-11-25T00:11:59;10.40;99.90
54954;DHT22;40855;51.072;5.402;2022-11-25T00:14:25;10.50;99.90
54954;DHT22;40855;51.072;5.402;2022-11-25T00:16:51;10.50;99.90
54954;DHT22;40855;51.072;5.402;2022-11-25T00:19:16;10.50;99.90
54954;DHT22;40855;51.072;5.402;2022-11-25T00:21:42;10.50;99.90
54954;DHT22;40855;51.072;5.402;2022-11-25T00:24:08;10.50;99.90
54954;DHT22;40855;51.072;5.402;2022-11-25T00:26:35;10.50;99.90
54954;DHT22;40855;51.072;5.402;2022-11-25T00:29:03;10.60;99.90
54954;DHT22;40855;51.072;5.402;2022-11-25T00:31:31;10.50;99.90
54954;DHT22;40855;51.072;5.402;2022-11-25T00:33:57;10.60;99.90
54954;DHT22;40855;51.072;5.402;2022-11-25T00:36:25;10.60;99.90
54954;DHT22;40855;51.072;5.402;2022-11-25T00:38:59;10.60;99.90
54954;DHT22;40855;51.072;5.402;2022-11-25T00:41:25;10.60;99.90
54954;DHT22;40855;51.072;5.402;2022-11-25T00:44:12;10.60;99.90
54954;DHT22;40855;51.072;5.402;2022-11-25T00:46:56;10.60;99.90
54954;DHT22;40855;51.072;5.402;2022-11-25T00:49:22;10.60;99.90
54954;DHT22;40855;51.072;5.402;2022-11-25T00:51:48;10.70;99.90
54954;DHT22;40855;51.072;5.402;2022-11-25T00:54:13;10.60;99.90
54954;DHT22;40855;51.072;5.402;2022-11-25T00:56:39;10.70;99.90
54954;DHT22;40855;51.072;5.402;2022-11-25T00:59:05;10.70;99.90
54954;DHT22;40855;51.072;5.402;2022-11-25T01:01:31;10.70;99.90
54954;DHT22;40855;51.072;5.402;2022-11-25T01:03:57;10.70;99.90
54954;DHT22;40855;51.072;5.402;2022-11-25T01:06:24;10.70;99.90
54954;DHT22;40855;51.072;5.402;2022-11-25T01:08:50;10.70;99.90
54954;DHT22;40855;51.072;5.402;2022-11-25T01:11:19;10.70;99.90
54954;DHT22;40855;51.072;5.402;2022-11-25T01:13:45;10.70;99.90
54954;DHT22;40855;51.072;5.402;2022-11-25T01:16:17;10.70;99.90
54954;DHT22;40855;51.072;5.402;2022-11-25T01:18:43;10.70;99.90
54954;DHT22;40855;51.072;5.402;2022-11-25T01:21:14;10.80;99.90
54954;DHT22;40855;51.072;5.402;2022-11-25T01:23:41;10.80;99.90
54954;DHT22;40855;51.072;5.402;2022-11-25T01:26:11;10.70;99.90
54954;DHT22;40855;51.072;5.402;2022-11-25T01:28:37;10.80;99.90
54954;DHT22;40855;51.072;5.402;2022-11-25T01:31:08;10.70;99.90
54954;DHT22;40855;51.072;5.402;2022-11-25T01:33:34;10.80;99.90
54954;DHT22;40855;51.072;5.402;2022-11-25T01:36:05;10.80;99.90
54954;DHT22;40855;51.072;5.402;2022-11-25T01:38:31;10.80;99.90
54954;DHT22;40855;51.072;5.402;2022-11-25T01:40:58;10.80;99.90
54954;DHT22;40855;51.072;5.402;2022-11-25T01:43:24;10.80;99.90
54954;DHT22;40855;51.072;5.402;2022-11-25T01:45:50;10.80;99.90
54954;DHT22;40855;51.072;5.402;2022-11-25T01:48:44;10.80;99.90
54954;DHT22;40855;51.072;5.402;2022-11-25T01:51:20;10.80;99.90
54954;DHT22;40855;51.072;5.402;2022-11-25T01:53:49;10.80;99.90
54954;DHT22;40855;51.072;5.402;2022-11-25T01:56:15;10.80;99.90
54954;DHT22;40855;51.072;5.402;2022-11-25T01:58:42;10.80;99.90
54954;DHT22;40855;51.072;5.402;2022-11-25T02:01:09;10.80;99.90
54954;DHT22;40855;51.072;5.402;2022-11-25T02:03:40;10.80;99.90
54954;DHT22;40855;51.072;5.402;2022-11-25T02:08:39;10.80;99.90
54954;DHT22;40855;51.072;5.402;2022-11-25T02:11:05;10.80;99.90
54954;DHT22;40855;51.072;5.402;2022-11-25T02:13:32;10.80;99.90
54954;DHT22;40855;51.072;5.402;2022-11-25T02:15:57;10.80;99.90
54954;DHT22;40855;51.072;5.402;2022-11-25T02:18:25;10.80;99.90
54954;DHT22;40855;51.072;5.402;2022-11-25T02:20:51;10.80;99.90
54954;DHT22;40855;51.072;5.402;2022-11-25T02:26:02;10.80;99.90
54954;DHT22;40855;51.072;5.402;2022-11-25T02:28:30;10.80;99.90
54954;DHT22;40855;51.072;5.402;2022-11-25T02:30:56;10.70;99.90
54954;DHT22;40855;51.072;5.402;2022-11-25T02:33:23;10.70;99.90
54954;DHT22;40855;51.072;5.402;2022-11-25T02:38:40;10.70;99.90
54954;DHT22;40855;51.072;5.402;2022-11-25T02:41:24;10.70;99.90
54954;DHT22;40855;51.072;5.402;2022-11-25T02:43:51;10.70;99.90
54954;DHT22;40855;51.072;5.402;2022-11-25T02:46:18;10.70;99.90
54954;DHT22;40855;51.072;5.402;2022-11-25T02:48:44;10.60;99.90
54954;DHT22;40855;51.072;5.402;2022-11-25T02:51:13;10.60;99.90
54954;DHT22;40855;51.072;5.402;2022-11-25T02:53:39;10.60;99.90
54954;DHT22;40855;51.072;5.402;2022-11-25T02:56:05;10.60;99.90
54954;DHT22;40855;51.072;5.402;2022-11-25T02:58:31;10.50;99.90
54954;DHT22;40855;51.072;5.402;2022-11-25T03:00:57;10.50;99.90
54954;DHT22;40855;51.072;5.402;2022-11-25T03:03:23;10.50;99.90
54954;DHT22;40855;51.072;5.402;2022-11-25T03:05:48;10.50;99.90
54954;DHT22;40855;51.072;5.402;2022-11-25T03:08:14;10.50;99.90
54954;DHT22;40855;51.072;5.402;2022-11-25T03:10:40;10.50;99.90
54954;DHT22;40855;51.072;5.402;2022-11-25T03:13:06;10.50;99.90
54954;DHT22;40855;51.072;5.402;2022-11-25T03:15:33;10.40;99.90
54954;DHT22;40855;51.072;5.402;2022-11-25T03:17:59;10.40;99.90
54954;DHT22;40855;51.072;5.402;2022-11-25T03:20:25;10.40;99.90
54954;DHT22;40855;51.072;5.402;2022-11-25T03:22:50;10.40;99.90
54954;DHT22;40855;51.072;5.402;2022-11-25T03:25:17;10.30;99.90
54954;DHT22;40855;51.072;5.402;2022-11-25T03:27:43;10.30;99.90
54954;DHT22;40855;51.072;5.402;2022-11-25T03:30:18;10.30;99.90
54954;DHT22;40855;51.072;5.402;2022-11-25T03:32:44;10.30;99.90
54954;DHT22;40855;51.072;5.402;2022-11-25T03:35:11;10.20;99.90
54954;DHT22;40855;51.072;5.402;2022-11-25T03:37:37;10.20;99.90
54954;DHT22;40855;51.072;5.402;2022-11-25T03:40:04;10.20;99.90
54954;DHT22;40855;51.072;5.402;2022-11-25T03:42:30;10.10;99.90
54954;DHT22;40855;51.072;5.402;2022-11-25T03:44:56;10.10;99.90
54954;DHT22;40855;51.072;5.402;2022-11-25T03:47:22;10.10;99.90
54954;DHT22;40855;51.072;5.402;2022-11-25T03:49:47;10.10;99.90
54954;DHT22;40855;51.072;5.402;2022-11-25T03:52:13;10.10;99.90
54954;DHT22;40855;51.072;5.402;2022-11-25T03:54:39;10.10;99.90
54954;DHT22;40855;51.072;5.402;2022-11-25T03:57:05;10.10;99.90
54954;DHT22;40855;51.072;5.402;2022-11-25T03:59:30;10.10;99.90
54954;DHT22;40855;51.072;5.402;2022-11-25T04:01:56;10.00;99.90
54954;DHT22;40855;51.072;5.402;2022-11-25T04:04:22;10.00;99.90
54954;DHT22;40855;51.072;5.402;2022-11-25T04:06:47;10.00;99.90
54954;DHT22;40855;51.072;5.402;2022-11-25T04:09:13;10.00;99.90
54954;DHT22;40855;51.072;5.402;2022-11-25T04:11:39;10.00;99.90
54954;DHT22;40855;51.072;5.402;2022-11-25T04:14:23;10.00;99.90
54954;DHT22;40855;51.072;5.402;2022-11-25T04:16:49;10.00;99.90
54954;DHT22;40855;51.072;5.402;2022-11-25T04:19:14;10.00;99.90
54954;DHT22;40855;51.072;5.402;2022-11-25T04:21:40;10.00;99.90
54954;DHT22;40855;51.072;5.402;2022-11-25T04:24:06;10.00;99.90
54954;DHT22;40855;51.072;5.402;2022-11-25T04:26:32;10.00;99.90
54954;DHT22;40855;51.072;5.402;2022-11-25T04:28:58;10.00;99.90
54954;DHT22;40855;51.072;5.402;2022-11-25T04:31:23;9.90;99.90
54954;DHT22;40855;51.072;5.402;2022-11-25T04:33:49;9.90;99.90
54954;DHT22;40855;51.072;5.402;2022-11-25T04:36:15;9.90;99.90
54954;DHT22;40855;51.072;5.402;2022-11-25T04:38:40;10.00;99.90
54954;DHT22;40855;51.072;5.402;2022-11-25T04:41:06;9.90;99.90
54954;DHT22;40855;51.072;5.402;2022-11-25T04:43:32;9.90;99.90
54954;DHT22;40855;51.072;5.402;2022-11-25T04:45:57;9.90;99.90
54954;DHT22;40855;51.072;5.402;2022-11-25T04:48:23;9.90;99.90
54954;DHT22;40855;51.072;5.402;2022-11-25T04:50:49;9.80;99.90
54954;DHT22;40855;51.072;5.402;2022-11-25T04:53:15;9.80;99.90
54954;DHT22;40855;51.072;5.402;2022-11-25T04:55:41;9.80;99.90
54954;DHT22;40855;51.072;5.402;2022-11-25T04:58:07;9.80;99.90
54954;DHT22;40855;51.072;5.402;2022-11-25T05:00:33;9.80;99.90
54954;DHT22;40855;51.072;5.402;2022-11-25T05:02:59;9.80;99.90
54954;DHT22;40855;51.072;5.402;2022-11-25T05:05:24;9.70;99.90
54954;DHT22;40855;51.072;5.402;2022-11-25T05:07:50;9.70;99.90
54954;DHT22;40855;51.072;5.402;2022-11-25T05:10:16;9.70;99.90
54954;DHT22;40855;51.072;5.402;2022-11-25T05:12:42;9.70;99.90
54954;DHT22;40855;51.072;5.402;2022-11-25T05:15:08;9.70;99.90
54954;DHT22;40855;51.072;5.402;2022-11-25T05:17:33;9.60;99.90
54954;DHT22;40855;51.072;5.402;2022-11-25T05:19:59;9.60;99.90
54954;DHT22;40855;51.072;5.402;2022-11-25T05:22:30;9.60;99.90
54954;DHT22;40855;51.072;5.402;2022-11-25T05:24:56;9.60;99.90
54954;DHT22;40855;51.072;5.402;2022-11-25T05:27:23;9.60;99.90
54954;DHT22;40855;51.072;5.402;2022-11-25T05:29:49;9.50;99.90
54954;DHT22;40855;51.072;5.402;2022-11-25T05:32:15;9.50;99.90
54954;DHT22;40855;51.072;5.402;2022-11-25T05:34:41;9.50;99.90
54954;DHT22;40855;51.072;5.402;2022-11-25T05:37:08;9.50;99.90
54954;DHT22;40855;51.072;5.402;2022-11-25T05:39:35;9.50;99.90
54954;DHT22;40855;51.072;5.402;2022-11-25T05:42:00;9.60;99.90
54954;DHT22;40855;51.072;5.402;2022-11-25T05:44:26;9.50;99.90
54954;DHT22;40855;51.072;5.402;2022-11-25T05:46:52;9.50;99.90
54954;DHT22;40855;51.072;5.402;2022-11-25T05:49:19;9.50;99.90
54954;DHT22;40855;51.072;5.402;2022-11-25T05:51:45;9.50;99.90
54954;DHT22;40855;51.072;5.402;2022-11-25T05:54:11;9.50;99.90
54954;DHT22;40855;51.072;5.402;2022-11-25T05:56:37;9.50;99.90
54954;DHT22;40855;51.072;5.402;2022-11-25T05:59:04;9.50;99.90
54954;DHT22;40855;51.072;5.402;2022-11-25T06:01:31;9.40;99.90
54954;DHT22;40855;51.072;5.402;2022-11-25T06:04:02;9.50;99.90
54954;DHT22;40855;51.072;5.402;2022-11-25T06:06:28;9.40;99.90
54954;DHT22;40855;51.072;5.402;2022-11-25T06:08:54;9.40;99.90
54954;DHT22;40855;51.072;5.402;2022-11-25T06:11:20;9.30;99.90
54954;DHT22;40855;51.072;5.402;2022-11-25T06:13:46;9.30;99.90
54954;DHT22;40855;51.072;5.402;2022-11-25T06:16:17;9.30;99.90
54954;DHT22;40855;51.072;5.402;2022-11-25T06:18:43;9.30;99.90
54954;DHT22;40855;51.072;5.402;2022-11-25T06:21:10;9.30;99.90
54954;DHT22;40855;51.072;5.402;2022-11-25T06:23:37;9.30;99.90
54954;DHT22;40855;51.072;5.402;2022-11-25T06:26:09;9.20;99.90
54954;DHT22;40855;51.072;5.402;2022-11-25T06:28:35;9.20;99.90
54954;DHT22;40855;51.072;5.402;2022-11-25T06:31:12;9.20;99.90
54954;DHT22;40855;51.072;5.402;2022-11-25T06:33:38;9.30;99.90
54954;DHT22;40855;51.072;5.402;2022-11-25T06:36:06;9.20;99.90
54954;DHT22;40855;51.072;5.402;2022-11-25T06:38:32;9.20;99.90
54954;DHT22;40855;51.072;5.402;2022-11-25T06:40:59;9.20;99.90
54954;DHT22;40855;51.072;5.402;2022-11-25T06:43:25;9.20;99.90
54954;DHT22;40855;51.072;5.402;2022-11-25T06:45:50;9.20;99.90
54954;DHT22;40855;51.072;5.402;2022-11-25T06:48:16;9.20;99.90
54954;DHT22;40855;51.072;5.402;2022-11-25T06:50:42;9.20;99.90
54954;DHT22;40855;51.072;5.402;2022-11-25T06:53:07;9.20;99.90
54954;DHT22;40855;51.072;5.402;2022-11-25T06:55:33;9.20;99.90
54954;DHT22;40855;51.072;5.402;2022-11-25T06:57:58;9.20;99.90
54954;DHT22;40855;51.072;5.402;2022-11-25T07:00:24;9.10;99.90
54954;DHT22;40855;51.072;5.402;2022-11-25T07:02:50;9.10;99.90
54954;DHT22;40855;51.072;5.402;2022-11-25T07:05:15;9.10;99.90
54954;DHT22;40855;51.072;5.402;2022-11-25T07:07:41;9.10;99.90
54954;DHT22;40855;51.072;5.402;2022-11-25T07:10:07;9.10;99.90
54954;DHT22;40855;51.072;5.402;2022-11-25T07:12:33;9.10;99.90
54954;DHT22;40855;51.072;5.402;2022-11-25T07:14:59;9.10;99.90
54954;DHT22;40855;51.072;5.402;2022-11-25T07:17:24;9.10;99.90
54954;DHT22;40855;51.072;5.402;2022-11-25T07:19:50;9.10;99.90
54954;DHT22;40855;51.072;5.402;2022-11-25T07:22:15;9.10;99.90
54954;DHT22;40855;51.072;5.402;2022-11-25T07:24:41;9.00;99.90
54954;DHT22;40855;51.072;5.402;2022-11-25T07:27:07;9.00;99.90
54954;DHT22;40855;51.072;5.402;2022-11-25T07:29:32;9.10;99.90
54954;DHT22;40855;51.072;5.402;2022-11-25T07:32:00;9.00;99.90
54954;DHT22;40855;51.072;5.402;2022-11-25T07:34:26;9.10;99.90
54954;DHT22;40855;51.072;5.402;2022-11-25T07:36:51;9.10;99.90
54954;DHT22;40855;51.072;5.402;2022-11-25T07:39:20;9.00;99.90
54954;DHT22;40855;51.072;5.402;2022-11-25T07:41:49;9.00;99.90
54954;DHT22;40855;51.072;5.402;2022-11-25T07:44:15;9.00;99.90
54954;DHT22;40855;51.072;5.402;2022-11-25T07:46:42;9.00;99.90
54954;DHT22;40855;51.072;5.402;2022-11-25T07:49:14;9.00;99.90
54954;DHT22;40855;51.072;5.402;2022-11-25T07:51:43;9.10;99.90
54954;DHT22;40855;51.072;5.402;2022-11-25T07:54:12;9.00;99.90
54954;DHT22;40855;51.072;5.402;2022-11-25T07:56:40;9.10;99.90
54954;DHT22;40855;51.072;5.402;2022-11-25T07:59:10;9.00;99.90
54954;DHT22;40855;51.072;5.402;2022-11-25T08:01:36;9.10;99.90
54954;DHT22;40855;51.072;5.402;2022-11-25T08:04:02;9.10;99.90
54954;DHT22;40855;51.072;5.402;2022-11-25T08:06:28;9.10;99.90
54954;DHT22;40855;51.072;5.402;2022-11-25T08:08:55;9.10;99.90
54954;DHT22;40855;51.072;5.402;2022-11-25T08:11:27;9.10;99.90
54954;DHT22;40855;51.072;5.402;2022-11-25T08:13:53;9.10;99.90
54954;DHT22;40855;51.072;5.402;2022-11-25T08:16:21;9.10;99.90
54954;DHT22;40855;51.072;5.402;2022-11-25T08:18:48;9.10;99.90
54954;DHT22;40855;51.072;5.402;2022-11-25T08:21:15;9.10;99.90
54954;DHT22;40855;51.072;5.402;2022-11-25T08:23:42;9.20;99.90
54954;DHT22;40855;51.072;5.402;2022-11-25T08:26:29;9.20;99.90
54954;DHT22;40855;51.072;5.402;2022-11-25T08:28:57;9.20;99.90
54954;DHT22;40855;51.072;5.402;2022-11-25T08:31:28;9.20;99.90
54954;DHT22;40855;51.072;5.402;2022-11-25T08:33:55;9.20;99.90
54954;DHT22;40855;51.072;5.402;2022-11-25T08:36:21;9.20;99.90
54954;DHT22;40855;51.072;5.402;2022-11-25T08:38:49;9.30;99.90
54954;DHT22;40855;51.072;5.402;2022-11-25T08:41:33;9.30;99.90
54954;DHT22;40855;51.072;5.402;2022-11-25T08:44:00;9.30;99.90
54954;DHT22;40855;51.072;5.402;2022-11-25T08:46:28;9.30;99.90
54954;DHT22;40855;51.072;5.402;2022-11-25T08:48:54;9.30;99.90
54954;DHT22;40855;51.072;5.402;2022-11-25T08:51:26;9.30;99.90
54954;DHT22;40855;51.072;5.402;2022-11-25T08:53:52;9.40;99.90
54954;DHT22;40855;51.072;5.402;2022-11-25T08:56:19;9.40;99.90
54954;DHT22;40855;51.072;5.402;2022-11-25T08:58:45;9.40;99.90
54954;DHT22;40855;51.072;5.402;2022-11-25T09:01:12;9.40;99.90
54954;DHT22;40855;51.072;5.402;2022-11-25T09:03:40;9.50;99.90
54954;DHT22;40855;51.072;5.402;2022-11-25T09:06:08;9.50;99.90
54954;DHT22;40855;51.072;5.402;2022-11-25T09:08:34;9.50;99.90
54954;DHT22;40855;51.072;5.402;2022-11-25T09:11:00;9.60;99.90
54954;DHT22;40855;51.072;5.402;2022-11-25T09:13:26;9.60;99.90
54954;DHT22;40855;51.072;5.402;2022-11-25T09:15:53;9.70;99.90
54954;DHT22;40855;51.072;5.402;2022-11-25T09:18:19;9.70;99.90
54954;DHT22;40855;51.072;5.402;2022-11-25T09:20:50;9.70;99.90
54954;DHT22;40855;51.072;5.402;2022-11-25T09:23:15;9.80;99.90
54954;DHT22;40855;51.072;5.402;2022-11-25T09:25:41;9.80;99.90
54954;DHT22;40855;51.072;5.402;2022-11-25T09:28:07;9.80;99.90
54954;DHT22;40855;51.072;5.402;2022-11-25T09:30:33;9.80;99.90
54954;DHT22;40855;51.072;5.402;2022-11-25T09:32:59;9.90;99.90
54954;DHT22;40855;51.072;5.402;2022-11-25T09:35:25;9.90;99.90
54954;DHT22;40855;51.072;5.402;2022-11-25T09:37:51;10.00;99.90
54954;DHT22;40855;51.072;5.402;2022-11-25T09:40:20;10.00;99.90
54954;DHT22;40855;51.072;5.402;2022-11-25T09:42:57;10.10;99.90
54954;DHT22;40855;51.072;5.402;2022-11-25T09:45:50;10.10;99.90
54954;DHT22;40855;51.072;5.402;2022-11-25T09:51:30;10.10;99.90
54954;DHT22;40855;51.072;5.402;2022-11-25T10:00:16;10.20;99.90
54954;DHT22;40855;51.072;5.402;2022-11-25T10:08:14;10.30;99.90
54954;DHT22;40855;51.072;5.402;2022-11-25T10:10:46;10.30;99.90
54954;DHT22;40855;51.072;5.402;2022-11-25T10:13:21;10.40;99.90
54954;DHT22;40855;51.072;5.402;2022-11-25T10:15:49;10.40;99.90
54954;DHT22;40855;51.072;5.402;2022-11-25T10:20:51;10.50;99.90
54954;DHT22;40855;51.072;5.402;2022-11-25T10:23:31;10.50;99.90
54954;DHT22;40855;51.072;5.402;2022-11-25T10:26:08;10.60;99.90
54954;DHT22;40855;51.072;5.402;2022-11-25T10:28:36;10.60;99.90
54954;DHT22;40855;51.072;5.402;2022-11-25T10:31:18;10.60;99.90
54954;DHT22;40855;51.072;5.402;2022-11-25T10:41:26;10.80;99.90
54954;DHT22;40855;51.072;5.402;2022-11-25T10:43:53;10.80;99.90
54954;DHT22;40855;51.072;5.402;2022-11-25T10:48:57;10.80;99.90
54954;DHT22;40855;51.072;5.402;2022-11-25T10:51:37;10.80;99.90
54954;DHT22;40855;51.072;5.402;2022-11-25T10:54:25;10.80;99.90
54954;DHT22;40855;51.072;5.402;2022-11-25T10:57:17;10.90;99.90
54954;DHT22;40855;51.072;5.402;2022-11-25T10:59:56;10.90;99.90
54954;DHT22;40855;51.072;5.402;2022-11-25T11:05:24;10.90;99.90
54954;DHT22;40855;51.072;5.402;2022-11-25T11:08:14;10.80;99.90
54954;DHT22;40855;51.072;5.402;2022-11-25T11:10:41;10.90;99.90
54954;DHT22;40855;51.072;5.402;2022-11-25T11:13:23;10.90;99.90
54954;DHT22;40855;51.072;5.402;2022-11-25T11:15:50;10.90;99.90
54954;DHT22;40855;51.072;5.402;2022-11-25T11:18:20;11.00;99.90
54954;DHT22;40855;51.072;5.402;2022-11-25T11:20:50;11.00;99.90
54954;DHT22;40855;51.072;5.402;2022-11-25T11:23:16;11.00;99.90
54954;DHT22;40855;51.072;5.402;2022-11-25T11:25:54;11.00;99.90
54954;DHT22;40855;51.072;5.402;2022-11-25T11:28:27;11.00;99.90
54954;DHT22;40855;51.072;5.402;2022-11-25T11:31:01;11.00;99.90
54954;DHT22;40855;51.072;5.402;2022-11-25T11:33:29;11.10;99.90
54954;DHT22;40855;51.072;5.402;2022-11-25T11:44:52;11.20;99.90
54954;DHT22;40855;51.072;5.402;2022-11-25T11:56:22;11.30;99.90
54954;DHT22;40855;51.072;5.402;2022-11-25T12:04:37;11.40;99.90
54954;DHT22;40855;51.072;5.402;2022-11-25T12:07:23;11.40;99.90
54954;DHT22;40855;51.072;5.402;2022-11-25T12:10:02;11.50;99.90
54954;DHT22;40855;51.072;5.402;2022-11-25T12:12:39;11.50;99.90
54954;DHT22;40855;51.072;5.402;2022-11-25T12:21:04;11.70;99.90
54954;DHT22;40855;51.072;5.402;2022-11-25T12:26:22;11.70;99.90
54954;DHT22;40855;51.072;5.402;2022-11-25T12:28:56;11.70;99.90
54954;DHT22;40855;51.072;5.402;2022-11-25T12:31:25;11.80;99.90
54954;DHT22;40855;51.072;5.402;2022-11-25T12:36:35;11.70;99.90
54954;DHT22;40855;51.072;5.402;2022-11-25T12:39:17;11.80;99.90
54954;DHT22;40855;51.072;5.402;2022-11-25T12:41:53;11.90;99.90
54954;DHT22;40855;51.072;5.402;2022-11-25T12:47:18;11.90;99.90
54954;DHT22;40855;51.072;5.402;2022-11-25T12:49:48;11.90;99.90
54954;DHT22;40855;51.072;5.402;2022-11-25T12:55:13;12.00;99.90
54954;DHT22;40855;51.072;5.402;2022-11-25T12:58:03;12.10;99.90
54954;DHT22;40855;51.072;5.402;2022-11-25T13:14:52;12.10;99.90
54954;DHT22;40855;51.072;5.402;2022-11-25T13:17:21;12.10;99.90
54954;DHT22;40855;51.072;5.402;2022-11-25T13:19:47;12.10;99.90
54954;DHT22;40855;51.072;5.402;2022-11-25T13:24:44;12.20;99.90
54954;DHT22;40855;51.072;5.402;2022-11-25T13:27:29;12.20;99.90
54954;DHT22;40855;51.072;5.402;2022-11-25T13:29:56;12.20;99.90
54954;DHT22;40855;51.072;5.402;2022-11-25T13:32:34;12.20;99.90
54954;DHT22;40855;51.072;5.402;2022-11-25T13:37:49;12.30;99.90
54954;DHT22;40855;51.072;5.402;2022-11-25T13:40:19;12.30;99.90
54954;DHT22;40855;51.072;5.402;2022-11-25T13:42:46;12.30;99.90
54954;DHT22;40855;51.072;5.402;2022-11-25T13:45:38;12.30;99.90
54954;DHT22;40855;51.072;5.402;2022-11-25T13:48:26;12.30;99.90
54954;DHT22;40855;51.072;5.402;2022-11-25T13:51:21;12.40;99.90
54954;DHT22;40855;51.072;5.402;2022-11-25T13:53:53;12.30;99.90
54954;DHT22;40855;51.072;5.402;2022-11-25T14:01:38;12.40;99.90
54954;DHT22;40855;51.072;5.402;2022-11-25T14:04:06;12.30;99.90
54954;DHT22;40855;51.072;5.402;2022-11-25T14:06:53;12.30;99.90
54954;DHT22;40855;51.072;5.402;2022-11-25T14:12:41;12.30;99.90
54954;DHT22;40855;51.072;5.402;2022-11-25T14:21:09;12.10;99.90
54954;DHT22;40855;51.072;5.402;2022-11-25T14:23:52;12.10;99.90
54954;DHT22;40855;51.072;5.402;2022-11-25T14:26:37;12.10;99.90
54954;DHT22;40855;51.072;5.402;2022-11-25T14:29:31;12.00;99.90
54954;DHT22;40855;51.072;5.402;2022-11-25T14:35:31;12.10;99.90
54954;DHT22;40855;51.072;5.402;2022-11-25T14:38:03;12.00;99.90
54954;DHT22;40855;51.072;5.402;2022-11-25T14:43:23;12.00;99.90
54954;DHT22;40855;51.072;5.402;2022-11-25T14:48:42;12.00;99.90
54954;DHT22;40855;51.072;5.402;2022-11-25T14:51:10;12.00;99.90
54954;DHT22;40855;51.072;5.402;2022-11-25T14:53:42;12.00;99.90
54954;DHT22;40855;51.072;5.402;2022-11-25T14:56:09;12.00;99.90
54954;DHT22;40855;51.072;5.402;2022-11-25T14:58:49;12.00;99.90
54954;DHT22;40855;51.072;5.402;2022-11-25T15:01:19;12.00;99.90
54954;DHT22;40855;51.072;5.402;2022-11-25T15:03:46;11.90;99.90
54954;DHT22;40855;51.072;5.402;2022-11-25T15:06:13;11.90;99.90
54954;DHT22;40855;51.072;5.402;2022-11-25T15:08:44;11.90;99.90
54954;DHT22;40855;51.072;5.402;2022-11-25T15:11:21;11.90;99.90
54954;DHT22;40855;51.072;5.402;2022-11-25T15:14:14;11.90;99.90
54954;DHT22;40855;51.072;5.402;2022-11-25T15:16:43;11.90;99.90
54954;DHT22;40855;51.072;5.402;2022-11-25T15:19:20;11.90;99.90
54954;DHT22;40855;51.072;5.402;2022-11-25T15:21:55;11.90;99.90
54954;DHT22;40855;51.072;5.402;2022-11-25T15:24:28;11.80;99.90
54954;DHT22;40855;51.072;5.402;2022-11-25T15:26:56;11.80;99.90
54954;DHT22;40855;51.072;5.402;2022-11-25T15:29:23;11.80;99.90
54954;DHT22;40855;51.072;5.402;2022-11-25T15:31:50;11.80;99.90
54954;DHT22;40855;51.072;5.402;2022-11-25T15:34:17;11.80;99.90
54954;DHT22;40855;51.072;5.402;2022-11-25T15:36:44;11.80;99.90
54954;DHT22;40855;51.072;5.402;2022-11-25T15:39:15;11.80;99.90
54954;DHT22;40855;51.072;5.402;2022-11-25T15:41:43;11.80;99.90
54954;DHT22;40855;51.072;5.402;2022-11-25T15:44:24;11.80;99.90
54954;DHT22;40855;51.072;5.402;2022-11-25T15:46:55;11.80;99.90
54954;DHT22;40855;51.072;5.402;2022-11-25T15:49:22;11.80;99.90
54954;DHT22;40855;51.072;5.402;2022-11-25T15:52:03;11.70;99.90
54954;DHT22;40855;51.072;5.402;2022-11-25T15:54:37;11.70;99.90
54954;DHT22;40855;51.072;5.402;2022-11-25T15:57:19;11.70;99.90
54954;DHT22;40855;51.072;5.402;2022-11-25T16:02:58;11.60;99.90
54954;DHT22;40855;51.072;5.402;2022-11-25T16:05:34;11.60;99.90
54954;DHT22;40855;51.072;5.402;2022-11-25T16:08:23;11.60;99.90
54954;DHT22;40855;51.072;5.402;2022-11-25T16:10:56;11.60;99.90
54954;DHT22;40855;51.072;5.402;2022-11-25T16:16:10;11.50;99.90
54954;DHT22;40855;51.072;5.402;2022-11-25T16:18:43;11.50;99.90
54954;DHT22;40855;51.072;5.402;2022-11-25T16:21:21;11.40;99.90
54954;DHT22;40855;51.072;5.402;2022-11-25T16:23:51;11.40;99.90
54954;DHT22;40855;51.072;5.402;2022-11-25T16:28:55;11.40;99.90
54954;DHT22;40855;51.072;5.402;2022-11-25T16:31:22;11.40;99.90
54954;DHT22;40855;51.072;5.402;2022-11-25T16:33:49;11.40;99.90
54954;DHT22;40855;51.072;5.402;2022-11-25T16:36:17;11.40;99.90
54954;DHT22;40855;51.072;5.402;2022-11-25T16:38:42;11.40;99.90
54954;DHT22;40855;51.072;5.402;2022-11-25T16:41:22;11.30;99.90
54954;DHT22;40855;51.072;5.402;2022-11-25T16:43:49;11.30;99.90
54954;DHT22;40855;51.072;5.402;2022-11-25T16:46:16;11.30;99.90
54954;DHT22;40855;51.072;5.402;2022-11-25T16:48:43;11.30;99.90
54954;DHT22;40855;51.072;5.402;2022-11-25T16:51:19;11.30;99.90
54954;DHT22;40855;51.072;5.402;2022-11-25T16:53:46;11.30;99.90
54954;DHT22;40855;51.072;5.402;2022-11-25T16:56:22;11.30;99.90
54954;DHT22;40855;51.072;5.402;2022-11-25T16:58:49;11.30;99.90
54954;DHT22;40855;51.072;5.402;2022-11-25T17:01:16;11.20;99.90
54954;DHT22;40855;51.072;5.402;2022-11-25T17:03:42;11.20;99.90
54954;DHT22;40855;51.072;5.402;2022-11-25T17:06:19;11.20;99.90
54954;DHT22;40855;51.072;5.402;2022-11-25T17:08:45;11.20;99.90
54954;DHT22;40855;51.072;5.402;2022-11-25T17:11:24;11.20;99.90
54954;DHT22;40855;51.072;5.402;2022-11-25T17:13:51;11.20;99.90
54954;DHT22;40855;51.072;5.402;2022-11-25T17:16:20;11.20;99.90
54954;DHT22;40855;51.072;5.402;2022-11-25T17:18:46;11.20;99.90
54954;DHT22;40855;51.072;5.402;2022-11-25T17:21:13;11.20;99.90
54954;DHT22;40855;51.072;5.402;2022-11-25T17:23:43;11.20;99.90
54954;DHT22;40855;51.072;5.402;2022-11-25T17:26:22;11.20;99.90
54954;DHT22;40855;51.072;5.402;2022-11-25T17:28:58;11.20;99.90
54954;DHT22;40855;51.072;5.402;2022-11-25T17:31:27;11.10;99.90
54954;DHT22;40855;51.072;5.402;2022-11-25T17:33:54;11.00;99.90
54954;DHT22;40855;51.072;5.402;2022-11-25T17:36:20;11.00;99.90
54954;DHT22;40855;51.072;5.402;2022-11-25T17:38:46;11.00;99.90
54954;DHT22;40855;51.072;5.402;2022-11-25T17:41:14;11.00;99.90
54954;DHT22;40855;51.072;5.402;2022-11-25T17:43:40;10.90;99.90
54954;DHT22;40855;51.072;5.402;2022-11-25T17:46:10;10.90;99.90
54954;DHT22;40855;51.072;5.402;2022-11-25T17:48:37;10.90;99.90
54954;DHT22;40855;51.072;5.402;2022-11-25T17:51:03;10.90;99.90
54954;DHT22;40855;51.072;5.402;2022-11-25T17:53:29;10.80;99.90
54954;DHT22;40855;51.072;5.402;2022-11-25T17:55:55;10.80;99.90
54954;DHT22;40855;51.072;5.402;2022-11-25T17:58:21;10.80;99.90
54954;DHT22;40855;51.072;5.402;2022-11-25T18:00:46;10.80;99.90